Página principal
METAR-TAF:

METAR-TAF

Aeroportos :

Aeroporto Internacional Blaise Diagne

Dakar, Senegal

latitude: 14-40-16N, longitude: 17-04-01W, altura: 88 m

Observação actual do tempo

O boletim foi feito há 33 minutos, às 12:30 UTC
Vento 12 kt de oes-sudoeste
Temperatura 30°C
Humidade 62%
Pressão 1013 hPa
Visibilidade 10 km ou mais
Nuvens dispersasa uma altura de 1900 ft

METAR: GOBD 071230Z 25012KT 9999 SCT019 30/22 Q1013 NOSIG

Hora: 13:03 (13:03 UTC)

Previsão

O boletim foi feito há 1 hora e 33 minutos, às 11:30 UTC
Previsão válida de 07 às 12 UTC a 08 às 18 UTC
Vento 12 kt de oeste
Visibilidade 10 km ou mais
Nuvens dispersasa uma altura de 1500 ft

TAF: GOBD 071130Z 0712/0818 27012KT 9999 SCT015

Observações e previsões do tempo de mais de 4000 aeroportos (mensagens METAR e TAF).

As estações disponíveis são os pontos amarelos e vermelhos sobre o mapa.

Mova o rato sobre o mapa para ver o nome da estação.

Depois clique no ponto para visualizar as observações e previsões meteorológicas.

Para alterar o mapa : clique nos botões verdes com uma cruz preta para aumentar o zoom; no botão verde com uma pitada de zoom; ou nas setas verdes para mapas adjacentes.


METAR-TAF: